Time,TemperatureF,DewpointF,PressureIn,WindDirection,WindDirectionDegrees,WindSpeedMPH,WindSpeedGustMPH,Humidity,HourlyPrecipIn,Conditions,Clouds,dailyrainin,SoftwareType,DateUTC
2013-11-02 00:00:00,46.0,41.6,29.65,WSW,245,2.6,3.8,84,0.00,,,0.00,WSDL version 443,2013-11-02 04:00:00,
2013-11-02 00:05:00,46.0,41.6,29.65,WSW,254,2.1,3.8,84,0.00,,,0.00,WSDL version 443,2013-11-02 04:05:00,
2013-11-02 00:10:00,46.0,41.6,29.65,WSW,250,2.1,5.4,84,0.00,,,0.00,WSDL version 443,2013-11-02 04:10:00,
2013-11-02 00:15:00,46.0,41.6,29.65,West,270,2.2,5.4,84,0.00,,,0.00,WSDL version 443,2013-11-02 04:15:00,
2013-11-02 00:20:00,46.0,41.7,29.65,WSW,250,3.0,6.3,85,0.00,,,0.00,WSDL version 443,2013-11-02 04:20:00,
2013-11-02 00:25:00,46.0,42.0,29.65,WSW,257,2.4,6.3,86,0.00,,,0.00,WSDL version 443,2013-11-02 04:25:00,
2013-11-02 00:30:00,46.0,42.0,29.65,WSW,243,2.4,4.3,86,0.00,,,0.00,WSDL version 443,2013-11-02 04:30:00,
2013-11-02 00:35:00,46.0,42.0,29.65,West,260,2.3,4.0,86,0.00,,,0.00,WSDL version 443,2013-11-02 04:35:00,
2013-11-02 00:40:00,46.0,42.0,29.65,SW,233,2.3,4.0,86,0.00,,,0.00,WSDL version 443,2013-11-02 04:40:00,
2013-11-02 00:45:00,46.0,42.0,29.65,SW,236,1.5,3.6,86,0.00,,,0.00,WSDL version 443,2013-11-02 04:45:00,
2013-11-02 00:50:00,46.0,42.0,29.65,West,260,2.3,4.0,86,0.00,,,0.00,WSDL version 443,2013-11-02 04:50:00,
2013-11-02 00:55:00,46.0,42.0,29.65,WSW,241,2.2,4.0,86,0.00,,,0.00,WSDL version 443,2013-11-02 04:55:00,
2013-11-02 01:00:00,46.0,42.0,29.65,West,266,2.0,3.1,86,0.00,,,0.00,WSDL version 443,2013-11-02 05:00:00,
2013-11-02 01:05:00,46.0,42.3,29.62,WSW,246,2.3,3.6,87,0.00,,,0.00,WSDL version 443,2013-11-02 05:05:00,
2013-11-02 01:10:00,46.0,42.3,29.62,WSW,253,1.9,3.6,87,0.00,,,0.00,WSDL version 443,2013-11-02 05:10:00,
2013-11-02 01:15:00,46.0,42.3,29.62,WSW,250,2.3,3.1,87,0.00,,,0.00,WSDL version 443,2013-11-02 05:15:00,
2013-11-02 01:20:00,46.0,42.3,29.62,WSW,248,1.8,3.4,87,0.00,,,0.00,WSDL version 443,2013-11-02 05:20:00,
2013-11-02 01:25:00,46.0,42.3,29.62,SW,223,1.7,3.4,87,0.00,,,0.00,WSDL version 443,2013-11-02 05:25:00,
2013-11-02 01:30:00,45.9,42.1,29.62,SW,227,1.5,3.4,87,0.00,,,0.00,WSDL version 443,2013-11-02 05:30:00,
2013-11-02 01:35:00,45.9,42.1,29.62,WSW,245,1.3,3.4,87,0.00,,,0.00,WSDL version 443,2013-11-02 05:35:00,
2013-11-02 01:40:00,45.9,42.2,29.62,WSW,241,1.7,4.0,87,0.00,,,0.00,WSDL version 443,2013-11-02 05:40:00,
2013-11-02 01:45:00,45.9,42.4,29.62,WSW,241,2.0,4.0,88,0.00,,,0.00,WSDL version 443,2013-11-02 05:45:00,
2013-11-02 01:50:00,45.9,42.4,29.65,West,259,1.9,3.8,88,0.00,,,0.00,WSDL version 443,2013-11-02 05:50:00,
2013-11-02 01:55:00,45.9,42.4,29.65,WSW,237,1.5,3.6,88,0.00,,,0.00,WSDL version 443,2013-11-02 05:55:00,
2013-11-02 02:00:00,45.9,42.4,29.65,WSW,248,1.5,3.6,88,0.00,,,0.00,WSDL version 443,2013-11-02 06:00:00,
2013-11-02 02:05:00,45.9,42.4,29.62,SW,231,1.3,3.6,88,0.00,,,0.00,WSDL version 443,2013-11-02 06:05:00,
2013-11-02 02:10:00,45.9,42.5,29.62,SW,231,0.7,2.5,88,0.00,,,0.00,WSDL version 443,2013-11-02 06:10:00,
2013-11-02 02:15:00,46.0,42.6,29.62,West,262,1.2,2.2,88,0.00,,,0.00,WSDL version 443,2013-11-02 06:15:00,
2013-11-02 02:20:00,46.0,42.6,29.62,WSW,254,0.6,2.7,88,0.00,,,0.00,WSDL version 443,2013-11-02 06:20:00,
2013-11-02 02:25:00,46.0,42.6,29.62,West,264,1.6,2.7,88,0.00,,,0.00,WSDL version 443,2013-11-02 06:25:00,
2013-11-02 02:30:00,46.0,42.6,29.62,WSW,248,1.9,2.9,88,0.00,,,0.00,WSDL version 443,2013-11-02 06:30:00,
2013-11-02 02:35:00,46.0,42.6,29.62,WSW,254,1.5,2.9,88,0.00,,,0.00,WSDL version 443,2013-11-02 06:35:00,
2013-11-02 02:40:00,46.0,42.6,29.62,WSW,238,1.2,3.1,88,0.00,,,0.00,WSDL version 443,2013-11-02 06:40:00,
2013-11-02 02:45:00,46.0,42.6,29.62,WSW,248,0.0,3.1,88,0.00,,,0.00,WSDL version 443,2013-11-02 06:45:00,
2013-11-02 02:50:00,46.0,42.6,29.62,WSW,249,0.6,2.0,88,0.00,,,0.00,WSDL version 443,2013-11-02 06:50:00,
2013-11-02 02:55:00,46.0,42.6,29.62,SW,225,0.6,3.1,88,0.00,,,0.00,WSDL version 443,2013-11-02 06:55:00,
2013-11-02 03:00:00,46.0,42.6,29.62,WNW,286,1.6,3.1,88,0.00,,,0.00,WSDL version 443,2013-11-02 07:00:00,
2013-11-02 03:05:00,46.0,42.6,29.65,West,263,0.3,3.4,88,0.00,,,0.00,WSDL version 443,2013-11-02 07:05:00,
2013-11-02 03:10:00,46.0,42.6,29.65,West,277,0.2,3.4,88,0.00,,,0.00,WSDL version 443,2013-11-02 07:10:00,
2013-11-02 03:15:00,46.0,42.6,29.65,NW,308,0.6,2.7,88,0.00,,,0.00,WSDL version 443,2013-11-02 07:15:00,
2013-11-02 03:20:00,46.0,42.6,29.65,NNW,329,1.7,3.4,88,0.00,,,0.00,WSDL version 443,2013-11-02 07:20:00,
2013-11-02 03:25:00,46.0,42.6,29.65,WNW,302,1.7,3.4,88,0.00,,,0.00,WSDL version 443,2013-11-02 07:25:00,
2013-11-02 03:30:00,46.0,42.9,29.65,NW,317,2.5,4.0,89,0.00,,,0.00,WSDL version 443,2013-11-02 07:30:00,
2013-11-02 03:35:00,46.0,43.0,29.65,NW,313,2.5,4.0,89,0.00,,,0.00,WSDL version 443,2013-11-02 07:35:00,
2013-11-02 03:40:00,46.0,43.1,29.65,NNW,331,3.4,5.4,89,0.00,,,0.00,WSDL version 443,2013-11-02 07:40:00,
2013-11-02 03:45:00,46.0,43.3,29.65,NW,306,2.4,5.4,90,0.00,,,0.00,WSDL version 443,2013-11-02 07:45:00,
2013-11-02 03:50:00,46.0,43.2,29.65,NW,320,3.2,5.4,90,0.00,,,0.00,WSDL version 443,2013-11-02 07:50:00,
2013-11-02 03:55:00,45.9,43.4,29.65,NW,319,3.1,6.3,91,0.00,,,0.00,WSDL version 443,2013-11-02 07:55:00,
2013-11-02 04:00:00,45.9,43.4,29.65,NNW,329,2.8,6.3,91,0.00,,,0.00,WSDL version 443,2013-11-02 08:00:00,
2013-11-02 04:05:00,45.9,43.4,29.65,NW,321,2.8,4.0,91,0.00,,,0.00,WSDL version 443,2013-11-02 08:05:00,
2013-11-02 04:10:00,45.9,43.4,29.65,NW,315,2.7,4.0,91,0.00,,,0.00,WSDL version 443,2013-11-02 08:10:00,
2013-11-02 04:15:00,45.7,43.3,29.65,NW,315,2.2,4.0,91,0.00,,,0.00,WSDL version 443,2013-11-02 08:15:00,
2013-11-02 04:20:00,45.7,43.2,29.65,NW,311,2.9,4.7,91,0.00,,,0.00,WSDL version 443,2013-11-02 08:20:00,
2013-11-02 04:25:00,45.7,43.2,29.65,WNW,303,1.5,4.7,91,0.00,,,0.00,WSDL version 443,2013-11-02 08:25:00,
2013-11-02 04:30:00,45.7,43.3,29.65,NW,307,2.3,4.7,91,0.00,,,0.00,WSDL version 443,2013-11-02 08:30:00,
2013-11-02 04:35:00,45.8,43.6,29.65,NW,305,2.7,4.0,92,0.05,,,0.05,WSDL version 443,2013-11-02 08:35:00,
2013-11-02 04:40:00,45.9,43.7,29.65,WNW,297,2.1,4.0,92,0.05,,,0.05,WSDL version 443,2013-11-02 08:40:00,
2013-11-02 04:45:00,45.8,43.7,29.65,NW,308,3.1,5.4,92,0.05,,,0.05,WSDL version 443,2013-11-02 08:45:00,
2013-11-02 04:50:00,45.7,43.6,29.65,NW,309,2.8,5.4,92,0.05,,,0.05,WSDL version 443,2013-11-02 08:50:00,
2013-11-02 04:55:00,45.7,43.6,29.65,WNW,298,2.1,4.0,92,0.05,,,0.05,WSDL version 443,2013-11-02 08:55:00,
2013-11-02 05:00:00,45.7,43.5,29.65,NW,317,3.2,4.0,92,0.05,,,0.05,WSDL version 443,2013-11-02 09:00:00,
2013-11-02 05:05:00,45.5,43.4,29.65,NW,311,3.0,4.0,92,0.05,,,0.05,WSDL version 443,2013-11-02 09:05:00,
2013-11-02 05:10:00,45.5,43.5,29.65,WNW,290,3.4,4.7,93,0.05,,,0.05,WSDL version 443,2013-11-02 09:10:00,
2013-11-02 05:15:00,45.5,43.7,29.65,NW,315,3.3,4.9,93,0.05,,,0.05,WSDL version 443,2013-11-02 09:15:00,
2013-11-02 05:20:00,45.4,43.5,29.65,NW,315,3.1,4.9,93,0.05,,,0.05,WSDL version 443,2013-11-02 09:20:00,
2013-11-02 05:25:00,45.3,43.5,29.65,NW,306,3.2,5.4,93,0.05,,,0.05,WSDL version 443,2013-11-02 09:25:00,
2013-11-02 05:30:00,45.3,43.5,29.65,NW,313,4.0,7.2,93,0.05,,,0.05,WSDL version 443,2013-11-02 09:30:00,
2013-11-02 05:35:00,45.1,43.2,29.68,NNE,20,6.7,9.2,93,0.00,,,0.05,WSDL version 443,2013-11-02 09:35:00,
2013-11-02 05:40:00,44.7,42.0,29.68,NNW,345,5.4,9.2,90,0.00,,,0.05,WSDL version 443,2013-11-02 09:40:00,
2013-11-02 05:50:00,44.2,40.6,29.68,North,2,8.0,10.1,87,0.00,,,0.05,WSDL version 443,2013-11-02 09:50:00,
2013-11-02 05:55:00,44.0,40.2,29.68,NNE,23,5.9,10.1,86,0.00,,,0.05,WSDL version 443,2013-11-02 09:55:00,
2013-11-02 06:05:00,43.7,39.3,29.68,North,353,5.7,10.3,84,0.00,,,0.05,WSDL version 443,2013-11-02 10:05:00,
2013-11-02 06:10:00,43.5,38.9,29.68,North,10,6.0,10.3,84,0.00,,,0.05,WSDL version 443,2013-11-02 10:10:00,
2013-11-02 06:15:00,43.4,38.7,29.68,North,3,6.3,8.1,83,0.00,,,0.05,WSDL version 443,2013-11-02 10:15:00,
2013-11-02 06:20:00,43.3,38.6,29.68,North,357,4.5,8.1,83,0.00,,,0.05,WSDL version 443,2013-11-02 10:20:00,
2013-11-02 06:25:00,43.3,38.7,29.68,North,6,4.9,8.1,84,0.04,,,0.09,WSDL version 443,2013-11-02 10:25:00,
2013-11-02 06:30:00,43.2,38.8,29.68,North,2,5.5,8.1,84,0.04,,,0.09,WSDL version 443,2013-11-02 10:30:00,
2013-11-02 06:35:00,43.0,38.7,29.68,North,9,5.5,8.1,84,0.04,,,0.09,WSDL version 443,2013-11-02 10:35:00,
2013-11-02 06:40:00,42.9,38.4,29.68,NNE,20,4.5,7.6,84,0.04,,,0.09,WSDL version 443,2013-11-02 10:40:00,
2013-11-02 06:45:00,42.8,38.1,29.68,NNE,14,5.2,8.1,83,0.04,,,0.09,WSDL version 443,2013-11-02 10:45:00,
2013-11-02 06:50:00,42.8,38.1,29.71,North,11,4.6,8.1,83,0.04,,,0.09,WSDL version 443,2013-11-02 10:50:00,
2013-11-02 06:55:00,42.7,38.0,29.71,North,8,4.7,7.8,83,0.04,,,0.09,WSDL version 443,2013-11-02 10:55:00,
2013-11-02 07:00:00,42.6,37.9,29.71,North,358,4.1,6.5,83,0.04,,,0.09,WSDL version 443,2013-11-02 11:00:00,
2013-11-02 07:05:00,42.6,38.2,29.68,North,5,4.0,7.8,84,0.04,,,0.09,WSDL version 443,2013-11-02 11:05:00,
2013-11-02 07:10:00,42.6,38.2,29.68,NNE,14,3.1,7.8,84,0.04,,,0.09,WSDL version 443,2013-11-02 11:10:00,
2013-11-02 07:15:00,42.5,38.3,29.68,North,356,3.6,5.4,85,0.04,,,0.09,WSDL version 443,2013-11-02 11:15:00,
2013-11-02 07:20:00,42.6,38.6,29.71,NNW,348,2.7,5.4,86,0.04,,,0.09,WSDL version 443,2013-11-02 11:20:00,
2013-11-02 07:25:00,42.6,38.8,29.71,NNW,347,4.7,6.0,86,0.00,,,0.09,WSDL version 443,2013-11-02 11:25:00,
2013-11-02 07:30:00,42.5,38.8,29.71,NNW,336,4.8,7.6,87,0.00,,,0.09,WSDL version 443,2013-11-02 11:30:00,
2013-11-02 07:35:00,42.4,38.8,29.71,NNW,327,3.5,7.6,87,0.00,,,0.09,WSDL version 443,2013-11-02 11:35:00,
2013-11-02 07:40:00,42.4,38.8,29.71,NNW,338,3.3,7.4,87,0.00,,,0.09,WSDL version 443,2013-11-02 11:40:00,
2013-11-02 07:45:00,42.3,38.6,29.71,NNW,345,5.0,8.5,87,0.04,,,0.13,WSDL version 443,2013-11-02 11:45:00,
2013-11-02 07:50:00,42.3,38.6,29.74,NNW,338,5.1,8.5,87,0.04,,,0.13,WSDL version 443,2013-11-02 11:50:00,
2013-11-02 07:55:00,42.1,38.2,29.74,North,5,4.0,7.6,86,0.04,,,0.13,WSDL version 443,2013-11-02 11:55:00,
2013-11-02 08:00:00,42.1,38.0,29.74,North,351,4.8,7.6,86,0.04,,,0.13,WSDL version 443,2013-11-02 12:00:00,
2013-11-02 08:05:00,41.9,37.8,29.74,NNW,348,4.8,7.6,85,0.04,,,0.13,WSDL version 443,2013-11-02 12:05:00,
2013-11-02 08:10:00,41.8,37.4,29.74,NNW,348,3.3,7.6,84,0.04,,,0.13,WSDL version 443,2013-11-02 12:10:00,
2013-11-02 08:15:00,41.7,37.4,29.74,NNW,335,3.5,6.3,84,0.04,,,0.13,WSDL version 443,2013-11-02 12:15:00,
2013-11-02 08:20:00,41.7,37.4,29.74,NNW,342,3.4,6.0,84,0.04,,,0.13,WSDL version 443,2013-11-02 12:20:00,
2013-11-02 08:25:00,41.6,37.2,29.74,NNW,330,4.2,6.0,84,0.04,,,0.13,WSDL version 443,2013-11-02 12:25:00,
2013-11-02 08:30:00,41.5,37.5,29.74,NNW,331,3.7,6.0,85,0.04,,,0.13,WSDL version 443,2013-11-02 12:30:00,
2013-11-02 08:35:00,41.5,37.5,29.74,North,349,3.4,6.5,86,0.04,,,0.13,WSDL version 443,2013-11-02 12:35:00,
2013-11-02 08:40:00,41.5,37.5,29.74,NNW,338,3.6,6.5,86,0.04,,,0.13,WSDL version 443,2013-11-02 12:40:00,
2013-11-02 08:45:00,41.5,37.5,29.74,NW,307,3.6,5.6,86,0.00,,,0.13,WSDL version 443,2013-11-02 12:45:00,
2013-11-02 08:50:00,41.5,37.5,29.74,NNW,330,3.5,5.4,86,0.00,,,0.13,WSDL version 443,2013-11-02 12:50:00,
2013-11-02 08:55:00,41.5,37.5,29.74,NW,324,3.5,5.8,86,0.00,,,0.13,WSDL version 443,2013-11-02 12:55:00,
2013-11-02 09:00:00,41.5,37.5,29.74,NW,318,3.2,6.0,86,0.00,,,0.13,WSDL version 443,2013-11-02 13:00:00,
2013-11-02 09:05:00,41.7,37.7,29.77,NNW,329,2.9,6.0,86,0.00,,,0.13,WSDL version 443,2013-11-02 13:05:00,
2013-11-02 09:10:00,41.8,37.8,29.77,NNW,330,3.1,4.5,86,0.00,,,0.13,WSDL version 443,2013-11-02 13:10:00,
2013-11-02 09:15:00,42.2,38.2,29.77,NNW,333,3.1,4.5,86,0.00,,,0.13,WSDL version 443,2013-11-02 13:15:00,
2013-11-02 09:20:00,42.4,38.4,29.77,NW,325,3.7,5.6,86,0.00,,,0.13,WSDL version 443,2013-11-02 13:20:00,
2013-11-02 09:25:00,42.9,38.6,29.77,NNW,332,3.0,5.6,85,0.00,,,0.13,WSDL version 443,2013-11-02 13:25:00,
2013-11-02 09:30:00,43.4,38.9,29.77,NNW,333,3.7,5.6,84,0.00,,,0.13,WSDL version 443,2013-11-02 13:30:00,
2013-11-02 09:35:00,43.7,38.2,29.77,North,350,4.4,6.9,81,0.00,,,0.13,WSDL version 443,2013-11-02 13:35:00,
2013-11-02 09:40:00,43.9,36.4,29.77,NNW,328,5.2,7.8,75,0.00,,,0.13,WSDL version 443,2013-11-02 13:40:00,
2013-11-02 09:45:00,44.2,35.8,29.77,North,360,5.9,7.8,72,0.00,,,0.13,WSDL version 443,2013-11-02 13:45:00,
2013-11-02 09:50:00,44.8,36.0,29.77,North,349,4.1,8.5,71,0.00,,,0.13,WSDL version 443,2013-11-02 13:50:00,
2013-11-02 09:55:00,45.4,35.8,29.77,NNW,332,5.5,8.5,69,0.00,,,0.13,WSDL version 443,2013-11-02 13:55:00,
2013-11-02 10:01:00,45.8,35.5,29.77,NNW,345,5.6,7.6,67,0.00,,,0.13,WSDL version 443,2013-11-02 14:01:00,
2013-11-02 10:06:00,45.4,33.6,29.77,NNW,346,5.4,8.7,63,0.00,,,0.13,WSDL version 443,2013-11-02 14:06:00,
2013-11-02 10:15:00,44.6,32.7,29.77,North,357,6.2,11.4,63,0.00,,,0.13,WSDL version 443,2013-11-02 14:15:00,
2013-11-02 10:20:00,44.6,33.8,29.77,NNW,342,4.4,11.4,66,0.00,,,0.13,WSDL version 443,2013-11-02 14:20:00,
2013-11-02 10:25:00,44.6,34.5,29.77,North,6,4.0,7.8,67,0.00,,,0.13,WSDL version 443,2013-11-02 14:25:00,
2013-11-02 10:30:00,44.4,34.3,29.77,North,356,4.9,8.7,68,0.00,,,0.13,WSDL version 443,2013-11-02 14:30:00,
2013-11-02 10:35:00,44.4,34.4,29.80,North,5,5.1,8.7,68,0.00,,,0.13,WSDL version 443,2013-11-02 14:35:00,
2013-11-02 10:40:00,44.4,34.8,29.80,North,358,5.7,8.7,69,0.00,,,0.13,WSDL version 443,2013-11-02 14:40:00,
2013-11-02 10:45:00,44.4,34.9,29.80,North,360,5.2,8.1,69,0.00,,,0.13,WSDL version 443,2013-11-02 14:45:00,
2013-11-02 10:50:00,44.4,34.9,29.80,North,2,5.5,8.1,69,0.00,,,0.13,WSDL version 443,2013-11-02 14:50:00,
2013-11-02 10:55:00,44.3,34.7,29.80,NNW,331,6.3,8.5,69,0.00,,,0.13,WSDL version 443,2013-11-02 14:55:00,
2013-11-02 11:00:00,44.3,34.2,29.80,NNW,341,5.5,8.5,67,0.00,,,0.13,WSDL version 443,2013-11-02 15:00:00,
2013-11-02 11:05:00,44.3,34.7,29.80,North,356,5.4,8.7,69,0.00,,,0.13,WSDL version 443,2013-11-02 15:05:00,
2013-11-02 11:10:00,44.2,35.3,29.80,North,351,6.2,8.9,71,0.00,,,0.13,WSDL version 443,2013-11-02 15:10:00,
2013-11-02 11:15:00,44.2,34.9,29.80,North,6,6.1,11.0,70,0.00,,,0.13,WSDL version 443,2013-11-02 15:15:00,
2013-11-02 11:20:00,44.2,34.8,29.80,NNE,14,6.9,11.0,69,0.00,,,0.13,WSDL version 443,2013-11-02 15:20:00,
2013-11-02 11:25:00,44.2,34.6,29.80,North,11,7.0,10.3,69,0.00,,,0.13,WSDL version 443,2013-11-02 15:25:00,
2013-11-02 11:30:00,44.3,34.4,29.80,NNW,348,7.2,10.1,68,0.00,,,0.13,WSDL version 443,2013-11-02 15:30:00,
2013-11-02 11:35:00,44.5,34.4,29.83,North,360,6.8,10.1,68,0.00,,,0.13,WSDL version 443,2013-11-02 15:35:00,
2013-11-02 11:40:00,44.5,33.7,29.83,North,358,8.1,11.0,66,0.00,,,0.13,WSDL version 443,2013-11-02 15:40:00,
2013-11-02 11:45:00,44.6,34.0,29.83,North,5,6.6,11.0,66,0.00,,,0.13,WSDL version 443,2013-11-02 15:45:00,
2013-11-02 11:50:00,44.6,34.3,29.83,North,360,5.0,8.9,67,0.00,,,0.13,WSDL version 443,2013-11-02 15:50:00,
2013-11-02 11:55:00,44.5,34.5,29.83,NNE,15,6.2,8.5,68,0.00,,,0.13,WSDL version 443,2013-11-02 15:55:00,
2013-11-02 12:00:00,44.6,34.4,29.83,North,11,5.5,7.2,67,0.00,,,0.13,WSDL version 443,2013-11-02 16:00:00,
2013-11-02 12:05:00,44.5,34.1,29.85,North,360,7.0,10.1,67,0.00,,,0.13,WSDL version 443,2013-11-02 16:05:00,
2013-11-02 12:10:00,44.3,33.8,29.85,North,6,6.3,10.1,66,0.00,,,0.13,WSDL version 443,2013-11-02 16:10:00,
2013-11-02 12:15:00,44.6,34.8,29.85,North,11,4.5,8.5,68,0.00,,,0.13,WSDL version 443,2013-11-02 16:15:00,
2013-11-02 12:20:00,44.9,35.3,29.85,North,360,4.5,6.5,69,0.00,,,0.13,WSDL version 443,2013-11-02 16:20:00,
2013-11-02 12:25:00,44.9,35.0,29.85,NNW,342,4.3,8.1,68,0.00,,,0.13,WSDL version 443,2013-11-02 16:25:00,
2013-11-02 12:30:00,45.0,34.9,29.85,North,360,5.5,8.1,68,0.00,,,0.13,WSDL version 443,2013-11-02 16:30:00,
2013-11-02 12:35:00,45.0,34.8,29.85,North,360,7.3,10.1,67,0.00,,,0.13,WSDL version 443,2013-11-02 16:35:00,
2013-11-02 12:40:00,45.0,34.9,29.85,NNW,341,6.3,10.1,68,0.00,,,0.13,WSDL version 443,2013-11-02 16:40:00,
2013-11-02 12:45:00,44.9,34.5,29.85,North,11,6.2,8.7,67,0.00,,,0.13,WSDL version 443,2013-11-02 16:45:00,
2013-11-02 12:50:00,44.8,34.7,29.85,North,349,6.2,8.7,68,0.00,,,0.13,WSDL version 443,2013-11-02 16:50:00,
2013-11-02 12:57:00,44.7,35.1,29.85,NNE,27,7.6,12.5,69,0.00,,,0.13,WSDL version 443,2013-11-02 16:57:00,
2013-11-02 13:02:00,44.5,34.5,29.85,NW,326,6.1,12.5,68,0.00,,,0.13,WSDL version 443,2013-11-02 17:02:00,
2013-11-02 13:07:00,44.4,34.9,29.85,North,360,5.8,10.1,69,0.00,,,0.13,WSDL version 443,2013-11-02 17:07:00,
2013-11-02 13:12:00,44.2,35.5,29.85,North,357,7.2,10.3,71,0.00,,,0.13,WSDL version 443,2013-11-02 17:12:00,
2013-11-02 13:17:00,43.9,35.3,29.85,North,5,6.9,10.3,72,0.00,,,0.13,WSDL version 443,2013-11-02 17:17:00,
2013-11-02 13:22:00,43.9,36.0,29.85,North,360,8.1,10.1,74,0.00,,,0.13,WSDL version 443,2013-11-02 17:22:00,
2013-11-02 13:27:00,44.1,36.4,29.85,NNE,25,5.3,10.1,74,0.00,,,0.13,WSDL version 443,2013-11-02 17:27:00,
2013-11-02 13:32:00,44.5,36.8,29.85,North,6,8.2,11.2,74,0.00,,,0.13,WSDL version 443,2013-11-02 17:32:00,
2013-11-02 13:37:00,44.6,35.6,29.85,North,6,6.7,11.2,71,0.00,,,0.13,WSDL version 443,2013-11-02 17:37:00,
2013-11-02 13:42:00,44.6,34.8,29.85,NNE,25,10.0,13.9,68,0.00,,,0.13,WSDL version 443,2013-11-02 17:42:00,
2013-11-02 13:47:00,44.5,34.1,29.85,North,3,8.2,13.9,67,0.00,,,0.13,WSDL version 443,2013-11-02 17:47:00,
2013-11-02 13:52:00,44.2,33.7,29.88,NNE,25,8.4,13.2,66,0.00,,,0.13,WSDL version 443,2013-11-02 17:52:00,
2013-11-02 13:57:00,44.5,34.1,29.88,NNE,16,8.2,13.2,67,0.00,,,0.13,WSDL version 443,2013-11-02 17:57:00,
2013-11-02 14:02:00,45.0,34.6,29.88,NNE,18,7.3,13.2,67,0.00,,,0.13,WSDL version 443,2013-11-02 18:02:00,
2013-11-02 14:07:00,45.1,34.3,29.85,NNE,16,7.3,13.2,66,0.00,,,0.13,WSDL version 443,2013-11-02 18:07:00,
2013-11-02 14:12:00,45.6,33.6,29.85,North,10,7.3,14.5,63,0.00,,,0.13,WSDL version 443,2013-11-02 18:12:00,
2013-11-02 14:17:00,46.3,33.9,29.85,North,9,8.1,14.5,62,0.00,,,0.13,WSDL version 443,2013-11-02 18:17:00,
2013-11-02 14:22:00,45.8,32.1,29.85,North,6,8.4,12.5,59,0.00,,,0.13,WSDL version 443,2013-11-02 18:22:00,
2013-11-02 14:27:00,45.1,31.4,29.85,NNE,25,9.8,12.5,59,0.00,,,0.13,WSDL version 443,2013-11-02 18:27:00,
2013-11-02 14:32:00,44.7,31.8,29.85,North,6,8.6,12.5,60,0.00,,,0.13,WSDL version 443,2013-11-02 18:32:00,
2013-11-02 14:37:00,44.6,32.1,29.88,NNE,28,10.8,14.5,61,0.04,,,0.17,WSDL version 443,2013-11-02 18:37:00,
2013-11-02 14:42:00,44.3,31.7,29.88,NNE,28,8.1,14.5,61,0.04,,,0.17,WSDL version 443,2013-11-02 18:42:00,
2013-11-02 14:47:00,44.2,32.6,29.88,NNE,15,8.7,12.1,64,0.04,,,0.17,WSDL version 443,2013-11-02 18:47:00,
2013-11-02 14:52:00,44.0,32.8,29.88,NNE,14,10.0,15.2,65,0.04,,,0.17,WSDL version 443,2013-11-02 18:52:00,
2013-11-02 14:57:00,44.0,32.2,29.88,NNE,32,10.7,15.2,63,0.04,,,0.17,WSDL version 443,2013-11-02 18:57:00,
2013-11-02 15:02:00,44.1,32.7,29.88,NNE,15,10.1,13.2,64,0.04,,,0.17,WSDL version 443,2013-11-02 19:02:00,
2013-11-02 15:07:00,44.0,32.2,29.88,NNE,20,11.5,16.3,63,0.04,,,0.17,WSDL version 443,2013-11-02 19:07:00,
2013-11-02 15:12:00,43.7,31.6,29.88,NNE,23,9.9,16.3,62,0.04,,,0.17,WSDL version 443,2013-11-02 19:12:00,
2013-11-02 15:17:00,43.7,32.3,29.88,NNE,29,9.7,13.2,64,0.04,,,0.17,WSDL version 443,2013-11-02 19:17:00,
2013-11-02 15:22:00,43.9,32.4,29.88,NE,41,9.4,12.3,64,0.04,,,0.17,WSDL version 443,2013-11-02 19:22:00,
2013-11-02 15:27:00,44.1,32.1,29.88,NNE,25,8.5,12.3,63,0.04,,,0.17,WSDL version 443,2013-11-02 19:27:00,
2013-11-02 15:32:00,44.1,32.2,29.88,NNE,23,9.2,11.0,63,0.04,,,0.17,WSDL version 443,2013-11-02 19:32:00,
2013-11-02 15:37:00,44.0,31.6,29.88,NNE,23,10.7,11.0,62,0.00,,,0.17,WSDL version 443,2013-11-02 19:37:00,
2013-11-02 15:42:00,43.8,30.9,29.88,NNE,20,8.9,13.0,60,0.00,,,0.17,WSDL version 443,2013-11-02 19:42:00,
2013-11-02 15:47:00,43.7,29.9,29.88,NNE,23,7.6,13.0,58,0.00,,,0.17,WSDL version 443,2013-11-02 19:47:00,
2013-11-02 15:52:00,44.1,30.5,29.91,NNE,26,8.7,13.0,59,0.00,,,0.17,WSDL version 443,2013-11-02 19:52:00,
2013-11-02 15:57:00,44.2,31.5,29.91,NNE,29,7.3,11.2,61,0.00,,,0.17,WSDL version 443,2013-11-02 19:57:00,
2013-11-02 16:02:00,44.2,30.8,29.91,NNE,32,8.4,10.7,59,0.00,,,0.17,WSDL version 443,2013-11-02 20:02:00,
2013-11-02 16:07:00,44.4,31.4,29.91,NNE,23,6.9,10.7,60,0.00,,,0.17,WSDL version 443,2013-11-02 20:07:00,
2013-11-02 16:12:00,44.4,29.9,29.91,NE,37,10.4,13.0,57,0.00,,,0.17,WSDL version 443,2013-11-02 20:12:00,
2013-11-02 16:17:00,44.3,29.4,29.91,NE,35,8.4,13.0,55,0.00,,,0.17,WSDL version 443,2013-11-02 20:17:00,
2013-11-02 16:22:00,44.4,29.2,29.91,NNE,18,7.4,12.3,55,0.00,,,0.17,WSDL version 443,2013-11-02 20:22:00,
2013-11-02 16:27:00,44.4,28.8,29.91,NE,42,10.7,15.2,54,0.00,,,0.17,WSDL version 443,2013-11-02 20:27:00,
2013-11-02 16:32:00,44.2,27.5,29.91,NNE,26,9.8,15.2,52,0.00,,,0.17,WSDL version 443,2013-11-02 20:32:00,
2013-11-02 16:37:00,44.1,28.0,29.94,NNE,23,10.7,13.0,53,0.00,,,0.17,WSDL version 443,2013-11-02 20:37:00,
2013-11-02 16:42:00,43.7,27.2,29.94,NNE,23,11.0,13.0,52,0.00,,,0.17,WSDL version 443,2013-11-02 20:42:00,
2013-11-02 16:47:00,43.6,27.0,29.94,NNE,32,10.0,12.5,52,0.00,,,0.17,WSDL version 443,2013-11-02 20:47:00,
2013-11-02 16:52:00,43.5,26.5,29.94,NNE,29,9.1,12.8,51,0.00,,,0.17,WSDL version 443,2013-11-02 20:52:00,
2013-11-02 16:57:00,43.3,26.9,29.94,NNE,18,8.8,12.8,52,0.00,,,0.17,WSDL version 443,2013-11-02 20:57:00,
2013-11-02 17:02:00,43.3,27.2,29.94,NNE,26,8.6,11.4,53,0.00,,,0.17,WSDL version 443,2013-11-02 21:02:00,
2013-11-02 17:07:00,43.3,27.5,29.97,NNE,25,7.0,11.0,53,0.00,,,0.17,WSDL version 443,2013-11-02 21:07:00,
2013-11-02 17:12:00,43.3,27.7,29.97,NNE,28,8.6,12.3,54,0.00,,,0.17,WSDL version 443,2013-11-02 21:12:00,
2013-11-02 17:17:00,43.3,27.4,29.97,NE,40,7.8,12.3,53,0.00,,,0.17,WSDL version 443,2013-11-02 21:17:00,
2013-11-02 17:22:00,43.3,27.2,29.97,NNE,25,7.2,11.0,53,0.00,,,0.17,WSDL version 443,2013-11-02 21:22:00,
2013-11-02 17:27:00,43.4,27.3,29.97,NE,38,7.8,11.4,53,0.00,,,0.17,WSDL version 443,2013-11-02 21:27:00,
2013-11-02 17:32:00,43.3,26.5,29.97,NNE,27,9.8,12.5,51,0.00,,,0.17,WSDL version 443,2013-11-02 21:32:00,
2013-11-02 17:37:00,43.3,26.2,29.97,NNE,23,8.4,13.2,51,0.00,,,0.17,WSDL version 443,2013-11-02 21:37:00,
2013-11-02 17:42:00,43.2,26.4,29.97,NNE,18,9.1,13.2,51,0.00,,,0.17,WSDL version 443,2013-11-02 21:42:00,
2013-11-02 17:47:00,43.0,26.1,29.97,NNE,27,9.3,12.8,51,0.00,,,0.17,WSDL version 443,2013-11-02 21:47:00,
2013-11-02 17:52:00,43.0,26.7,29.97,NNE,25,6.5,12.8,52,0.00,,,0.17,WSDL version 443,2013-11-02 21:52:00,
2013-11-02 17:57:00,42.8,26.4,29.97,NNE,20,6.7,12.5,52,0.00,,,0.17,WSDL version 443,2013-11-02 21:57:00,
2013-11-02 18:02:00,42.5,24.9,29.97,NNE,25,7.1,13.0,50,0.00,,,0.17,WSDL version 443,2013-11-02 22:02:00,
2013-11-02 18:07:00,42.3,24.9,29.97,NNE,23,6.8,13.0,50,0.00,,,0.17,WSDL version 443,2013-11-02 22:07:00,
2013-11-02 18:12:00,42.2,24.8,29.97,NNE,27,7.7,11.0,50,0.00,,,0.17,WSDL version 443,2013-11-02 22:12:00,
2013-11-02 18:17:00,42.1,24.8,29.97,NNE,28,6.3,10.1,50,0.00,,,0.17,WSDL version 443,2013-11-02 22:17:00,
2013-11-02 18:22:00,41.8,25.0,29.97,NNE,25,5.7,9.6,51,0.00,,,0.17,WSDL version 443,2013-11-02 22:22:00,
2013-11-02 18:27:00,41.7,25.6,29.97,NE,34,5.1,9.6,52,0.00,,,0.17,WSDL version 443,2013-11-02 22:27:00,
2013-11-02 18:32:00,41.5,25.5,29.97,NE,47,5.6,7.8,53,0.00,,,0.17,WSDL version 443,2013-11-02 22:32:00,
2013-11-02 18:37:00,41.2,24.9,30.00,NNE,31,6.1,8.1,52,0.00,,,0.17,WSDL version 443,2013-11-02 22:37:00,
2013-11-02 18:42:00,41.0,24.7,30.00,NE,39,5.6,10.3,52,0.00,,,0.17,WSDL version 443,2013-11-02 22:42:00,
2013-11-02 18:47:00,40.8,24.7,30.00,NNE,28,6.0,10.3,52,0.00,,,0.17,WSDL version 443,2013-11-02 22:47:00,
2013-11-02 18:52:00,40.6,24.9,30.00,NNE,30,7.5,9.8,53,0.00,,,0.17,WSDL version 443,2013-11-02 22:52:00,
2013-11-02 18:57:00,40.5,25.2,30.00,NE,35,4.0,9.8,54,0.00,,,0.17,WSDL version 443,2013-11-02 22:57:00,
2013-11-02 19:02:00,40.3,25.5,30.00,NE,47,5.7,7.4,55,0.00,,,0.17,WSDL version 443,2013-11-02 23:02:00,
2013-11-02 19:07:00,40.3,25.8,30.00,NE,34,5.1,7.4,56,0.00,,,0.17,WSDL version 443,2013-11-02 23:07:00,
2013-11-02 19:12:00,40.0,25.6,30.00,NE,45,4.5,7.4,56,0.00,,,0.17,WSDL version 443,2013-11-02 23:12:00,
2013-11-02 19:17:00,39.7,25.9,30.00,NE,36,3.9,6.5,57,0.00,,,0.17,WSDL version 443,2013-11-02 23:17:00,
2013-11-02 19:22:00,39.4,26.1,30.00,NE,38,4.0,5.6,59,0.00,,,0.17,WSDL version 443,2013-11-02 23:22:00,
2013-11-02 19:27:00,39.3,26.5,30.00,NE,56,3.7,5.6,60,0.00,,,0.17,WSDL version 443,2013-11-02 23:27:00,
2013-11-02 19:32:00,39.2,27.0,30.00,NE,55,3.6,5.6,61,0.00,,,0.17,WSDL version 443,2013-11-02 23:32:00,
2013-11-02 19:37:00,39.0,27.3,30.03,NE,35,3.7,5.6,63,0.00,,,0.17,WSDL version 443,2013-11-02 23:37:00,
2013-11-02 19:42:00,38.8,27.3,30.03,NE,55,2.8,4.7,63,0.00,,,0.17,WSDL version 443,2013-11-02 23:42:00,
2013-11-02 19:47:00,38.7,27.2,30.03,NE,39,3.6,4.7,63,0.00,,,0.17,WSDL version 443,2013-11-02 23:47:00,
2013-11-02 19:52:00,38.7,27.5,30.03,NNE,33,3.0,4.5,64,0.00,,,0.17,WSDL version 443,2013-11-02 23:52:00,
2013-11-02 19:57:00,38.6,27.9,30.03,NNE,33,3.8,4.9,65,0.00,,,0.17,WSDL version 443,2013-11-02 23:57:00,
2013-11-02 20:02:00,38.5,28.1,30.03,NE,43,6.1,7.4,66,0.00,,,0.17,WSDL version 443,2013-11-03 00:02:00,
2013-11-02 20:07:00,38.4,27.2,30.03,NE,47,5.2,8.1,64,0.00,,,0.17,WSDL version 443,2013-11-03 00:07:00,
2013-11-02 20:12:00,38.1,26.5,30.03,NE,47,3.9,8.1,63,0.00,,,0.17,WSDL version 443,2013-11-03 00:12:00,
2013-11-02 20:17:00,37.8,26.1,30.03,NE,37,4.1,6.5,63,0.00,,,0.17,WSDL version 443,2013-11-03 00:17:00,
2013-11-02 20:22:00,37.6,26.3,30.03,ENE,64,4.0,6.3,64,0.00,,,0.17,WSDL version 443,2013-11-03 00:22:00,
2013-11-02 20:27:00,37.3,26.3,30.03,ENE,68,4.3,6.3,64,0.00,,,0.17,WSDL version 443,2013-11-03 00:27:00,
2013-11-02 20:32:00,37.0,25.9,30.03,NE,41,3.7,5.6,64,0.00,,,0.17,WSDL version 443,2013-11-03 00:32:00,
2013-11-02 20:37:00,36.6,25.5,30.06,NE,42,3.3,5.4,64,0.00,,,0.17,WSDL version 443,2013-11-03 00:37:00,
2013-11-02 20:42:00,36.4,25.6,30.06,NE,53,2.6,5.4,65,0.00,,,0.17,WSDL version 443,2013-11-03 00:42:00,
2013-11-02 20:47:00,36.1,25.4,30.06,NE,42,3.4,5.4,65,0.00,,,0.17,WSDL version 443,2013-11-03 00:47:00,
2013-11-02 20:52:00,35.9,25.7,30.06,NE,39,3.1,4.0,66,0.00,,,0.17,WSDL version 443,2013-11-03 00:52:00,
2013-11-02 20:57:00,35.8,25.7,30.06,NNE,33,3.7,6.5,66,0.00,,,0.17,WSDL version 443,2013-11-03 00:57:00,
2013-11-02 21:02:00,35.8,26.6,30.06,NE,54,5.0,7.2,69,0.00,,,0.17,WSDL version 443,2013-11-03 01:02:00,
2013-11-02 21:07:00,36.0,27.1,30.09,ENE,65,4.5,7.2,70,0.00,,,0.17,WSDL version 443,2013-11-03 01:07:00,
2013-11-02 21:12:00,36.1,27.0,30.09,ENE,59,5.3,6.7,69,0.00,,,0.17,WSDL version 443,2013-11-03 01:12:00,
2013-11-02 21:17:00,36.3,27.0,30.09,ENE,57,4.2,7.4,69,0.00,,,0.17,WSDL version 443,2013-11-03 01:17:00,
2013-11-02 21:22:00,36.1,26.6,30.06,NE,56,5.0,7.4,68,0.00,,,0.17,WSDL version 443,2013-11-03 01:22:00,
2013-11-02 21:27:00,35.9,26.2,30.06,NE,55,3.7,6.5,68,0.00,,,0.17,WSDL version 443,2013-11-03 01:27:00,
2013-11-02 21:32:00,35.8,26.0,30.06,ENE,57,3.8,5.4,67,0.00,,,0.17,WSDL version 443,2013-11-03 01:32:00,
2013-11-02 21:37:00,35.7,26.2,30.09,ENE,77,3.3,5.8,68,0.00,,,0.17,WSDL version 443,2013-11-03 01:37:00,
2013-11-02 21:42:00,35.4,25.9,30.09,ENE,68,2.7,5.8,68,0.00,,,0.17,WSDL version 443,2013-11-03 01:42:00,
2013-11-02 21:47:00,35.1,25.7,30.09,ENE,71,2.9,4.7,68,0.00,,,0.17,WSDL version 443,2013-11-03 01:47:00,
2013-11-02 21:52:00,35.4,26.7,30.09,ENE,72,3.5,4.9,70,0.00,,,0.17,WSDL version 443,2013-11-03 01:52:00,
2013-11-02 21:57:00,35.8,28.0,30.09,ENE,73,4.0,5.6,73,0.00,,,0.17,WSDL version 443,2013-11-03 01:57:00,
2013-11-02 22:02:00,36.2,29.5,30.09,ENE,70,4.3,5.8,76,0.00,,,0.17,WSDL version 443,2013-11-03 02:02:00,
2013-11-02 22:07:00,36.5,29.9,30.09,NE,55,3.8,5.8,77,0.00,,,0.17,WSDL version 443,2013-11-03 02:07:00,
2013-11-02 22:12:00,36.6,30.1,30.09,ENE,74,4.6,6.0,77,0.00,,,0.17,WSDL version 443,2013-11-03 02:12:00,
2013-11-02 22:17:00,36.7,29.8,30.09,East,98,4.7,6.3,76,0.00,,,0.17,WSDL version 443,2013-11-03 02:17:00,
2013-11-02 22:22:00,36.6,29.0,30.09,ENE,77,4.2,6.3,74,0.00,,,0.17,WSDL version 443,2013-11-03 02:22:00,
2013-11-02 22:27:00,36.4,28.2,30.09,East,79,3.7,5.8,72,0.00,,,0.17,WSDL version 443,2013-11-03 02:27:00,
2013-11-02 22:32:00,36.2,27.7,30.09,ENE,78,3.9,5.8,71,0.00,,,0.17,WSDL version 443,2013-11-03 02:32:00,
2013-11-02 22:37:00,36.1,27.7,30.09,East,90,4.3,5.8,71,0.00,,,0.17,WSDL version 443,2013-11-03 02:37:00,
2013-11-02 22:42:00,36.1,28.0,30.09,East,83,4.1,5.8,72,0.00,,,0.17,WSDL version 443,2013-11-03 02:42:00,
2013-11-02 22:47:00,36.3,28.1,30.09,ENE,70,5.2,7.2,72,0.00,,,0.17,WSDL version 443,2013-11-03 02:47:00,
2013-11-02 22:52:00,36.4,28.3,30.12,ENE,63,5.4,7.2,72,0.00,,,0.17,WSDL version 443,2013-11-03 02:52:00,
2013-11-02 22:57:00,36.5,28.1,30.12,ENE,73,5.1,6.7,71,0.00,,,0.17,WSDL version 443,2013-11-03 02:57:00,
2013-11-02 23:02:00,36.5,27.9,30.12,ENE,71,4.9,7.4,71,0.00,,,0.17,WSDL version 443,2013-11-03 03:02:00,
2013-11-02 23:07:00,36.3,27.5,30.12,ENE,65,5.3,8.5,70,0.00,,,0.17,WSDL version 443,2013-11-03 03:07:00,
2013-11-02 23:12:00,36.3,27.2,30.12,ENE,65,6.5,8.5,69,0.00,,,0.17,WSDL version 443,2013-11-03 03:12:00,
2013-11-02 23:17:00,36.3,26.5,30.12,ENE,68,6.1,8.7,67,0.00,,,0.17,WSDL version 443,2013-11-03 03:17:00,
2013-11-02 23:22:00,36.1,26.3,30.12,ENE,63,4.6,8.7,67,0.00,,,0.17,WSDL version 443,2013-11-03 03:22:00,
2013-11-02 23:27:00,36.1,26.2,30.12,ENE,68,4.0,8.1,67,0.00,,,0.17,WSDL version 443,2013-11-03 03:27:00,
2013-11-02 23:32:00,35.8,26.0,30.12,ENE,68,3.1,6.5,67,0.00,,,0.17,WSDL version 443,2013-11-03 03:32:00,
2013-11-02 23:37:00,35.6,25.9,30.15,ENE,74,3.0,4.3,68,0.00,,,0.17,WSDL version 443,2013-11-03 03:37:00,
2013-11-02 23:42:00,35.6,26.2,30.15,ENE,68,3.1,3.6,68,0.00,,,0.17,WSDL version 443,2013-11-03 03:42:00,
2013-11-02 23:47:00,35.6,26.6,30.15,ENE,73,3.2,4.0,69,0.00,,,0.17,WSDL version 443,2013-11-03 03:47:00,
2013-11-02 23:52:00,35.6,26.9,30.15,ENE,72,3.2,4.3,70,0.00,,,0.17,WSDL version 443,2013-11-03 03:52:00,
2013-11-02 23:57:00,35.7,27.4,30.15,ENE,63,3.0,4.3,71,0.00,,,0.17,WSDL version 443,2013-11-03 03:57:00,